Time;durP1;ratioP1;P1;durP2;ratioP2;P2;SDS_P1;SDS_P2;PMS_P1;PMS_P2;Temp;Humidity;BMP_temperature;BMP_pressure;BME280_temperature;BME280_humidity;BME280_pressure;Samples;Min_cycle;Max_cycle;Signal;HPM_P1;HPM_P2
2022/03/12 00:00:46;;;;;;;7.35;3.58;;;2.60;46.70;;;;;;5044650;28;20035;-77
2022/03/12 00:03:13;;;;;;;6.32;4.00;;;2.60;46.70;;;;;;5023711;28;20442;-77
2022/03/12 00:05:45;;;;;;;6.88;4.10;;;2.60;46.80;;;;;;5028266;28;20131;-77
2022/03/12 00:08:12;;;;;;;4.88;3.08;;;2.50;46.80;;;;;;5056896;28;20040;-77
2022/03/12 00:10:39;;;;;;;7.45;3.80;;;2.50;46.90;;;;;;5055196;28;20048;-78
2022/03/12 00:13:04;;;;;;;8.35;3.70;;;2.40;46.80;;;;;;5055746;28;20153;-77
2022/03/12 00:15:31;;;;;;;8.27;3.38;;;2.40;46.90;;;;;;5061113;28;20497;-78
2022/03/12 00:17:57;;;;;;;6.32;3.40;;;2.30;47.00;;;;;;5057574;28;20036;-77
2022/03/12 00:20:22;;;;;;;6.03;3.25;;;2.30;47.10;;;;;;5060252;28;20512;-77
2022/03/12 00:22:49;;;;;;;7.47;3.40;;;2.20;47.10;;;;;;5060814;28;20041;-77
2022/03/12 00:25:16;;;;;;;6.07;3.78;;;2.20;47.10;;;;;;5046834;28;20036;-78
2022/03/12 00:27:42;;;;;;;5.72;3.20;;;2.20;47.20;;;;;;5047043;28;20032;-78
2022/03/12 00:30:09;;;;;;;6.90;4.07;;;2.20;47.30;;;;;;5047111;28;20147;-77
2022/03/12 00:32:36;;;;;;;6.35;3.95;;;2.10;47.30;;;;;;5047934;28;20033;-77
2022/03/12 00:35:05;;;;;;;6.28;3.88;;;2.10;47.40;;;;;;5051705;28;20033;-77
2022/03/12 00:37:31;;;;;;;9.45;4.35;;;2.10;47.60;;;;;;5054536;28;20041;-78
2022/03/12 00:39:57;;;;;;;6.95;4.05;;;2.00;47.50;;;;;;5021838;28;20040;-77
2022/03/12 00:42:22;;;;;;;7.25;4.03;;;2.00;47.60;;;;;;5020906;28;20135;-78
2022/03/12 00:44:48;;;;;;;7.25;4.13;;;2.00;47.70;;;;;;5016051;28;20436;-77
2022/03/12 00:47:14;;;;;;;6.22;3.58;;;1.90;47.70;;;;;;5009449;28;20393;-77
2022/03/12 00:49:39;;;;;;;7.18;4.32;;;1.90;47.70;;;;;;5005059;28;20159;-77
2022/03/12 00:52:05;;;;;;;6.10;3.47;;;1.90;47.80;;;;;;5017381;28;20128;-76
2022/03/12 00:54:31;;;;;;;8.68;4.22;;;1.80;47.90;;;;;;5031096;28;20037;-77
2022/03/12 00:56:56;;;;;;;5.93;3.70;;;1.80;47.90;;;;;;5010999;28;20037;-77
2022/03/12 00:59:22;;;;;;;9.45;3.80;;;1.80;48.00;;;;;;5029254;28;20044;-77
2022/03/12 01:01:47;;;;;;;7.65;4.03;;;1.70;48.00;;;;;;5000223;28;20025;-77
2022/03/12 01:04:13;;;;;;;7.75;4.00;;;1.70;48.10;;;;;;5025446;28;20486;-77
2022/03/12 01:06:38;;;;;;;7.65;3.53;;;1.70;48.00;;;;;;5007170;28;20028;-76
2022/03/12 01:09:04;;;;;;;5.75;3.05;;;1.60;48.00;;;;;;5014371;28;20025;-77
2022/03/12 01:11:29;;;;;;;6.43;3.10;;;1.60;48.10;;;;;;5028894;28;20029;-77
2022/03/12 01:13:55;;;;;;;4.75;2.75;;;1.60;48.10;;;;;;4991985;28;20099;-77
2022/03/12 01:16:21;;;;;;;6.88;2.97;;;1.50;48.00;;;;;;5006975;28;20557;-77
2022/03/12 01:18:47;;;;;;;7.78;3.05;;;1.50;48.00;;;;;;5030527;28;20040;-77
2022/03/12 01:21:17;;;;;;;6.80;3.20;;;1.50;48.10;;;;;;5004409;28;20497;-76
2022/03/12 01:23:46;;;;;;;7.60;3.03;;;1.40;48.20;;;;;;5019181;28;20040;-77
2022/03/12 01:26:12;;;;;;;6.72;3.25;;;1.40;48.20;;;;;;5026065;28;20047;-77
2022/03/12 01:28:38;;;;;;;5.75;2.55;;;1.40;48.30;;;;;;5014246;28;20037;-77
2022/03/12 01:31:03;;;;;;;6.05;3.00;;;1.30;48.30;;;;;;5023869;28;20041;-78
2022/03/12 01:33:29;;;;;;;6.28;3.20;;;1.30;48.40;;;;;;5026194;28;20040;-77
2022/03/12 01:35:56;;;;;;;6.85;2.80;;;1.30;48.40;;;;;;5023312;28;20514;-77
2022/03/12 01:38:35;;;;;;;5.10;3.05;;;1.30;48.50;;;;;;5039887;28;20090;-77
2022/03/12 01:41:03;;;;;;;4.35;3.05;;;1.30;48.80;;;;;;5064449;28;20039;-78
2022/03/12 01:43:32;;;;;;;4.28;2.90;;;1.30;48.60;;;;;;5044696;28;20066;-77
2022/03/12 01:46:01;;;;;;;3.95;2.95;;;1.20;48.60;;;;;;5058743;28;20040;-77
2022/03/12 01:48:28;;;;;;;5.05;2.75;;;1.20;48.60;;;;;;5061580;28;20082;-76
2022/03/12 01:50:54;;;;;;;6.07;2.92;;;1.20;48.70;;;;;;5046826;28;20036;-77
2022/03/12 01:53:20;;;;;;;6.43;3.13;;;1.20;48.80;;;;;;5042228;28;20161;-77
2022/03/12 01:55:46;;;;;;;4.55;2.85;;;1.20;48.70;;;;;;5065380;28;20741;-78
2022/03/12 01:58:11;;;;;;;6.35;3.10;;;1.20;49.40;;;;;;5041041;28;20127;-78
2022/03/12 02:00:43;;;;;;;4.03;2.67;;;1.20;48.80;;;;;;5057699;28;20150;-77
2022/03/12 02:03:09;;;;;;;5.18;2.83;;;1.10;48.80;;;;;;5046666;28;20043;-78
2022/03/12 02:05:34;;;;;;;4.90;2.88;;;1.10;48.80;;;;;;5056562;28;20044;-77
2022/03/12 02:08:01;;;;;;;4.43;2.50;;;1.10;48.90;;;;;;5061656;28;20453;-77
2022/03/12 02:10:27;;;;;;;6.18;2.92;;;1.10;49.00;;;;;;5059926;28;20044;-77
2022/03/12 02:12:53;;;;;;;5.40;2.65;;;1.10;49.10;;;;;;5044544;28;20045;-75
2022/03/12 02:15:21;;;;;;;3.92;2.53;;;1.00;49.00;;;;;;5048830;28;20094;-76
2022/03/12 02:17:47;;;;;;;6.97;3.10;;;1.00;49.00;;;;;;5075604;28;20087;-75
2022/03/12 02:20:16;;;;;;;4.63;2.83;;;1.00;49.10;;;;;;5049479;28;20040;-76
2022/03/12 02:22:42;;;;;;;7.75;3.10;;;1.00;49.30;;;;;;5044900;28;20497;-76
2022/03/12 02:25:08;;;;;;;5.03;2.35;;;1.00;49.20;;;;;;5056418;28;20059;-77
2022/03/12 02:27:34;;;;;;;4.40;2.78;;;1.00;49.20;;;;;;5044852;28;20670;-77
2022/03/12 02:30:00;;;;;;;6.93;3.00;;;1.00;49.30;;;;;;5035772;28;20437;-77
2022/03/12 02:32:26;;;;;;;4.55;2.45;;;0.90;49.30;;;;;;5064124;28;20044;-78
2022/03/12 02:34:53;;;;;;;4.03;2.58;;;0.90;49.30;;;;;;5053435;28;20049;-77
2022/03/12 02:37:35;;;;;;;4.40;2.40;;;0.90;49.30;;;;;;5050550;28;20074;-77
2022/03/12 02:40:09;;;;;;;4.72;2.65;;;0.90;49.10;;;;;;5058535;28;20090;-78
2022/03/12 02:42:37;;;;;;;4.25;2.78;;;0.90;49.10;;;;;;5054556;28;20036;-76
2022/03/12 02:45:07;;;;;;;5.57;2.67;;;1.00;49.20;;;;;;5038129;28;20033;-77
2022/03/12 02:47:33;;;;;;;5.00;2.70;;;1.00;49.30;;;;;;5024714;28;20151;-77
2022/03/12 02:50:02;;;;;;;6.28;2.85;;;0.90;49.30;;;;;;5041110;28;20059;-77
2022/03/12 02:52:28;;;;;;;6.07;2.72;;;0.90;49.40;;;;;;5055325;28;20112;-76
2022/03/12 02:54:55;;;;;;;7.05;3.00;;;0.90;49.40;;;;;;5033120;28;20040;-76
2022/03/12 02:57:24;;;;;;;5.85;2.95;;;0.90;49.40;;;;;;5039093;28;20397;-77
2022/03/12 02:59:53;;;;;;;5.15;2.75;;;0.80;49.40;;;;;;5045473;28;20065;-76
2022/03/12 03:02:28;;;;;;;3.97;2.20;;;0.90;49.50;;;;;;5046696;28;20058;-75
2022/03/12 03:04:54;;;;;;;4.43;2.42;;;0.80;50.20;;;;;;5055476;28;20432;-78
2022/03/12 03:07:20;;;;;;;5.13;2.72;;;0.80;49.50;;;;;;5049004;28;20024;-77
2022/03/12 03:09:46;;;;;;;4.07;2.65;;;0.80;49.60;;;;;;5056828;28;20051;-76
2022/03/12 03:12:12;;;;;;;6.43;2.95;;;0.80;49.70;;;;;;5037891;28;20482;-77
2022/03/12 03:14:42;;;;;;;7.57;2.63;;;0.80;49.70;;;;;;5046154;28;20750;-76
2022/03/12 03:17:11;;;;;;;3.63;2.25;;;0.80;49.70;;;;;;5061729;28;20063;-75
2022/03/12 03:19:38;;;;;;;4.03;2.53;;;0.80;49.80;;;;;;5056380;28;20493;-76
2022/03/12 03:22:04;;;;;;;4.68;2.45;;;0.70;49.70;;;;;;5027922;28;20036;-76
2022/03/12 03:24:29;;;;;;;6.07;2.45;;;0.70;49.70;;;;;;5056340;28;20035;-76
2022/03/12 03:26:56;;;;;;;4.32;2.78;;;0.70;49.70;;;;;;5049042;28;20150;-76
2022/03/12 03:29:23;;;;;;;6.82;2.47;;;0.70;49.70;;;;;;5049115;28;20698;-75
2022/03/12 03:31:49;;;;;;;6.00;2.88;;;0.70;49.80;;;;;;5055328;28;20048;-76
2022/03/12 03:34:15;;;;;;;4.13;2.65;;;0.70;49.80;;;;;;5026015;28;20039;-75
2022/03/12 03:36:40;;;;;;;5.18;2.75;;;0.70;49.90;;;;;;5056908;28;20041;-76
2022/03/12 03:39:06;;;;;;;6.13;2.40;;;0.70;50.00;;;;;;5045241;28;20061;-75
2022/03/12 03:41:33;;;;;;;4.63;2.65;;;0.60;49.90;;;;;;5058759;28;20108;-75
2022/03/12 03:43:58;;;;;;;4.60;2.38;;;0.60;50.00;;;;;;4999224;28;20029;-75
2022/03/12 03:46:24;;;;;;;4.82;2.42;;;0.60;50.00;;;;;;5047016;28;20115;-76
2022/03/12 03:48:51;;;;;;;5.25;2.90;;;0.60;50.10;;;;;;5059159;28;20083;-76
2022/03/12 03:51:17;;;;;;;5.70;2.78;;;0.60;50.20;;;;;;5037749;28;20025;-76
2022/03/12 03:53:42;;;;;;;4.53;2.58;;;0.60;50.90;;;;;;5057568;28;20032;-76
2022/03/12 03:56:08;;;;;;;4.07;2.53;;;0.60;50.20;;;;;;5037943;28;20091;-78
2022/03/12 03:58:34;;;;;;;4.15;2.42;;;0.60;50.30;;;;;;5053766;28;20052;-76
2022/03/12 04:01:06;;;;;;;3.00;2.30;;;0.50;50.30;;;;;;5040147;28;20036;-75
2022/03/12 04:03:32;;;;;;;6.03;3.15;;;0.50;50.30;;;;;;5040279;28;20120;-75
2022/03/12 04:05:59;;;;;;;4.53;2.70;;;0.50;50.30;;;;;;5052122;28;20451;-75
2022/03/12 04:08:24;;;;;;;6.70;3.00;;;0.50;50.30;;;;;;5058794;28;20028;-74
2022/03/12 04:10:50;;;;;;;5.35;2.58;;;0.50;50.40;;;;;;5054927;28;20032;-76
2022/03/12 04:13:17;;;;;;;4.97;2.83;;;0.50;50.40;;;;;;5054505;28;20071;-76
2022/03/12 04:15:43;;;;;;;4.63;2.40;;;0.50;50.60;;;;;;5039643;28;20040;-76
2022/03/12 04:18:08;;;;;;;3.67;2.60;;;0.50;50.60;;;;;;5048581;28;20091;-77
2022/03/12 04:20:34;;;;;;;5.63;2.95;;;0.50;50.70;;;;;;5055075;28;20032;-75
2022/03/12 04:23:00;;;;;;;6.72;2.88;;;0.50;50.70;;;;;;5049651;28;20082;-75
2022/03/12 04:25:25;;;;;;;2.72;2.30;;;0.50;50.70;;;;;;5068306;28;20116;-76
2022/03/12 04:27:51;;;;;;;6.75;2.30;;;0.50;50.70;;;;;;5022797;28;20036;-75
2022/03/12 04:30:20;;;;;;;5.43;2.97;;;0.50;50.70;;;;;;5068273;28;20037;-75
2022/03/12 04:32:46;;;;;;;6.10;2.80;;;0.50;50.80;;;;;;5064729;28;20054;-75
2022/03/12 04:35:12;;;;;;;6.38;2.90;;;0.50;50.80;;;;;;5038433;28;20040;-75
2022/03/12 04:37:37;;;;;;;3.72;2.22;;;0.50;50.80;;;;;;5044177;28;20847;-75
2022/03/12 04:40:08;;;;;;;4.45;2.25;;;0.40;50.80;;;;;;5062558;28;20032;-76
2022/03/12 04:42:35;;;;;;;3.90;2.73;;;0.50;50.90;;;;;;5035806;28;20390;-76
2022/03/12 04:45:01;;;;;;;3.90;2.55;;;0.50;51.00;;;;;;5055701;28;20275;-75
2022/03/12 04:47:26;;;;;;;7.90;2.83;;;0.50;51.00;;;;;;5062322;28;20692;-75
2022/03/12 04:49:52;;;;;;;4.85;2.85;;;0.50;51.00;;;;;;5057680;28;20596;-76
2022/03/12 04:52:18;;;;;;;7.00;2.83;;;0.50;51.00;;;;;;5060139;28;20374;-75
2022/03/12 04:54:43;;;;;;;5.80;3.53;;;0.50;51.00;;;;;;5048918;28;20040;-77
2022/03/12 04:57:09;;;;;;;6.43;3.28;;;0.50;51.10;;;;;;5057551;28;20146;-77
2022/03/12 04:59:34;;;;;;;4.88;2.85;;;0.50;51.10;;;;;;5069678;28;20032;-76
2022/03/12 05:02:00;;;;;;;5.25;2.70;;;0.50;51.00;;;;;;5059525;28;20033;-76
2022/03/12 05:04:26;;;;;;;4.45;2.70;;;0.50;51.00;;;;;;5065497;28;20035;-78
2022/03/12 05:06:51;;;;;;;5.75;2.80;;;0.50;51.00;;;;;;5039063;28;20040;-76
2022/03/12 05:09:19;;;;;;;6.35;3.08;;;0.50;50.60;;;;;;5043222;28;20098;-76
2022/03/12 05:11:44;;;;;;;5.05;3.15;;;0.50;51.10;;;;;;5050709;28;20036;-76
2022/03/12 05:14:15;;;;;;;5.05;2.67;;;0.50;51.10;;;;;;5058750;28;20103;-75
2022/03/12 05:16:43;;;;;;;6.17;3.23;;;0.50;51.10;;;;;;5039983;28;20075;-76
2022/03/12 05:19:08;;;;;;;5.72;2.58;;;0.50;51.20;;;;;;5013573;28;20108;-77
2022/03/12 05:21:34;;;;;;;6.55;3.03;;;0.50;51.20;;;;;;5039456;28;20104;-77
2022/03/12 05:23:59;;;;;;;5.07;3.25;;;0.50;51.30;;;;;;5028224;28;20110;-76
2022/03/12 05:26:26;;;;;;;4.75;2.55;;;0.60;51.40;;;;;;5042005;28;20040;-76
2022/03/12 05:28:51;;;;;;;5.97;2.92;;;0.60;51.30;;;;;;5036241;28;20040;-76
2022/03/12 05:31:17;;;;;;;6.53;2.92;;;0.60;51.40;;;;;;5035975;28;20043;-76
2022/03/12 05:33:43;;;;;;;4.57;2.70;;;0.60;51.40;;;;;;5043611;28;20119;-79
2022/03/12 05:36:08;;;;;;;8.35;3.78;;;0.60;51.40;;;;;;5024370;28;20036;-76
2022/03/12 05:38:37;;;;;;;7.18;3.80;;;0.60;51.50;;;;;;5028608;28;20052;-77
2022/03/12 05:41:06;;;;;;;7.38;4.00;;;0.60;51.50;;;;;;5025728;28;20056;-76
2022/03/12 05:43:33;;;;;;;4.90;2.55;;;0.60;51.50;;;;;;5055178;28;20041;-77
2022/03/12 05:46:00;;;;;;;7.47;3.40;;;0.70;51.60;;;;;;5044940;28;20512;-77
2022/03/12 05:48:27;;;;;;;5.85;3.22;;;0.70;51.30;;;;;;5039651;28;20036;-76
2022/03/12 05:50:53;;;;;;;6.28;3.63;;;0.70;51.30;;;;;;5037563;28;20071;-75
2022/03/12 05:53:19;;;;;;;4.85;2.90;;;0.70;51.30;;;;;;5044670;28;20028;-76
2022/03/12 05:55:47;;;;;;;4.78;3.20;;;0.70;51.90;;;;;;5053841;28;20036;-76
2022/03/12 05:58:15;;;;;;;3.97;2.70;;;0.70;51.80;;;;;;5032663;28;20039;-76
2022/03/12 06:00:41;;;;;;;6.57;3.67;;;0.80;51.00;;;;;;5036632;28;20533;-76
2022/03/12 06:03:10;;;;;;;8.02;4.70;;;0.80;50.90;;;;;;5058401;28;20086;-77
2022/03/12 06:05:41;;;;;;;6.35;4.00;;;0.80;50.90;;;;;;5037030;28;20043;-76
2022/03/12 06:08:08;;;;;;;7.60;3.83;;;0.80;51.00;;;;;;5042802;28;20033;-76
2022/03/12 06:10:34;;;;;;;6.32;4.22;;;0.80;51.00;;;;;;5046946;28;20051;-76
2022/03/12 06:13:00;;;;;;;7.00;3.90;;;0.80;50.90;;;;;;5039598;28;20028;-76
2022/03/12 06:15:26;;;;;;;5.57;3.63;;;0.80;50.90;;;;;;5046900;28;20435;-76
2022/03/12 06:17:52;;;;;;;8.20;5.25;;;0.80;51.00;;;;;;5056133;28;20033;-77
2022/03/12 06:20:20;;;;;;;7.35;4.20;;;0.80;51.00;;;;;;5031833;28;20126;-76
2022/03/12 06:22:46;;;;;;;5.75;3.45;;;0.80;51.10;;;;;;5052200;28;20139;-76
2022/03/12 06:25:13;;;;;;;8.98;5.18;;;0.80;51.00;;;;;;5066192;28;20568;-76
2022/03/12 06:27:42;;;;;;;12.45;6.00;;;0.80;50.80;;;;;;5045351;28;20059;-75
2022/03/12 06:30:10;;;;;;;16.63;8.38;;;0.80;50.90;;;;;;5035735;28;20033;-76
2022/03/12 06:32:37;;;;;;;11.98;6.43;;;0.80;51.10;;;;;;5045280;28;20120;-78
2022/03/12 06:35:03;;;;;;;9.55;6.15;;;0.80;51.10;;;;;;5047102;28;20051;-77
2022/03/12 06:37:28;;;;;;;11.30;6.47;;;0.90;51.00;;;;;;5047197;28;20407;-77
2022/03/12 06:39:55;;;;;;;15.13;7.20;;;0.90;51.00;;;;;;5030541;28;20036;-77
2022/03/12 06:42:22;;;;;;;8.38;4.15;;;0.90;51.00;;;;;;5059294;28;20519;-75
2022/03/12 06:44:50;;;;;;;7.00;3.35;;;0.90;50.90;;;;;;5054563;28;20055;-75
2022/03/12 06:47:16;;;;;;;12.38;6.60;;;1.00;50.90;;;;;;5051797;28;20040;-79
2022/03/12 06:49:41;;;;;;;18.42;8.52;;;1.10;50.80;;;;;;5019070;28;20041;-76
2022/03/12 06:52:07;;;;;;;18.42;8.40;;;1.10;50.60;;;;;;5059740;28;20580;-77
2022/03/12 06:54:33;;;;;;;18.60;10.48;;;1.20;50.50;;;;;;5058997;28;20807;-76
2022/03/12 06:57:01;;;;;;;9.77;5.45;;;1.20;50.40;;;;;;5022035;28;20037;-75
2022/03/12 06:59:26;;;;;;;8.45;4.63;;;1.30;50.30;;;;;;5043756;28;20057;-74
2022/03/12 07:01:52;;;;;;;8.43;4.10;;;1.40;50.80;;;;;;5037135;28;20033;-76
2022/03/12 07:04:18;;;;;;;6.55;3.78;;;1.40;49.90;;;;;;5034118;28;20040;-76
2022/03/12 07:06:44;;;;;;;5.72;3.38;;;1.50;49.80;;;;;;5029008;28;21013;-76
2022/03/12 07:09:09;;;;;;;7.65;3.38;;;1.60;49.70;;;;;;5045810;28;20060;-76
2022/03/12 07:11:35;;;;;;;4.78;2.83;;;1.70;49.50;;;;;;5048391;28;20029;-74
2022/03/12 07:14:00;;;;;;;4.53;3.00;;;1.70;49.30;;;;;;5041841;28;20043;-73
2022/03/12 07:16:26;;;;;;;4.28;2.97;;;1.80;49.20;;;;;;5048075;28;20062;-76
2022/03/12 07:18:51;;;;;;;4.70;3.08;;;2.00;49.10;;;;;;5058016;28;20033;-77
2022/03/12 07:21:17;;;;;;;5.22;3.20;;;2.10;49.00;;;;;;5033200;28;21934;-78
2022/03/12 07:23:43;;;;;;;5.00;3.00;;;2.20;48.80;;;;;;5064012;28;20415;-79
2022/03/12 07:26:08;;;;;;;6.18;2.75;;;2.30;48.60;;;;;;5066834;28;20592;-77
2022/03/12 07:28:34;;;;;;;5.85;3.28;;;2.40;48.50;;;;;;5036520;28;20108;-76
2022/03/12 07:31:00;;;;;;;7.35;3.30;;;2.50;48.40;;;;;;5058851;28;20107;-78
2022/03/12 07:33:26;;;;;;;6.15;3.67;;;2.60;48.30;;;;;;5054162;28;20104;-74
2022/03/12 07:35:52;;;;;;;6.32;3.35;;;2.70;48.10;;;;;;5066166;28;20044;-73
2022/03/12 07:38:17;;;;;;;6.00;3.53;;;2.80;48.00;;;;;;5070188;28;20893;-78
2022/03/12 07:40:43;;;;;;;6.75;3.40;;;2.90;47.90;;;;;;5069948;28;20029;-76
2022/03/12 07:43:08;;;;;;;8.98;3.53;;;3.00;47.80;;;;;;5043945;28;20032;-78
2022/03/12 07:45:34;;;;;;;5.15;3.20;;;3.10;47.60;;;;;;5060380;28;20074;-79
2022/03/12 07:48:00;;;;;;;4.53;2.92;;;3.20;47.60;;;;;;5071021;28;20036;-78
2022/03/12 07:50:26;;;;;;;6.63;3.22;;;3.30;47.50;;;;;;5053142;27;20035;-80
2022/03/12 07:52:52;;;;;;;6.00;3.63;;;3.50;47.40;;;;;;5042712;28;20059;-79
2022/03/12 07:55:17;;;;;;;5.47;3.50;;;3.60;47.30;;;;;;5043784;28;20051;-79
2022/03/12 07:57:43;;;;;;;8.38;3.47;;;3.80;47.20;;;;;;5058649;28;20515;-80
2022/03/12 08:00:10;;;;;;;12.10;3.33;;;3.90;47.00;;;;;;5063702;28;20041;-78
2022/03/12 08:02:36;;;;;;;5.90;3.47;;;4.00;46.90;;;;;;5044262;28;20033;-78
2022/03/12 08:05:02;;;;;;;5.22;3.17;;;4.20;46.80;;;;;;5045921;28;20112;-79
2022/03/12 08:07:28;;;;;;;6.63;3.00;;;4.40;46.70;;;;;;5060626;28;20027;-79
2022/03/12 08:09:56;;;;;;;5.03;3.28;;;4.50;46.50;;;;;;5063009;28;20036;-79
2022/03/12 08:12:31;;;;;;;5.10;3.38;;;4.70;46.30;;;;;;5052674;28;20556;-78
2022/03/12 08:15:00;;;;;;;5.93;3.25;;;4.80;46.00;;;;;;5052877;28;20028;-78
2022/03/12 08:17:26;;;;;;;5.53;3.45;;;5.00;46.00;;;;;;5042872;28;20040;-80
2022/03/12 08:19:52;;;;;;;5.93;3.05;;;5.20;45.90;;;;;;5056950;28;20037;-78
2022/03/12 08:22:17;;;;;;;6.85;3.17;;;5.30;45.70;;;;;;5060883;28;20063;-79
2022/03/12 08:24:43;;;;;;;6.75;3.30;;;5.50;45.60;;;;;;5053500;28;20074;-78
2022/03/12 08:27:09;;;;;;;5.53;3.15;;;5.60;45.40;;;;;;5027943;28;20053;-78
2022/03/12 08:29:34;;;;;;;5.60;2.88;;;5.80;45.30;;;;;;5041445;28;20557;-79
2022/03/12 08:32:00;;;;;;;5.75;3.10;;;6.00;45.20;;;;;;5052554;28;20033;-79
2022/03/12 08:34:26;;;;;;;8.50;3.17;;;6.10;45.10;;;;;;5055985;28;20507;-81
2022/03/12 08:36:52;;;;;;;5.93;3.10;;;6.30;44.90;;;;;;5021261;28;20123;-79
2022/03/12 08:39:17;;;;;;;5.22;3.35;;;6.50;44.70;;;;;;5069275;28;20070;-80
2022/03/12 08:41:43;;;;;;;4.47;3.10;;;6.60;44.50;;;;;;5035551;28;20561;-80
2022/03/12 08:44:09;;;;;;;5.32;3.65;;;6.80;44.40;;;;;;5041022;28;20036;-80
2022/03/12 08:46:35;;;;;;;6.82;3.65;;;7.00;44.20;;;;;;5065792;28;20120;-79
2022/03/12 08:49:02;;;;;;;4.70;3.00;;;7.20;44.10;;;;;;5049765;28;20029;-80
2022/03/12 08:51:27;;;;;;;7.13;2.80;;;7.30;44.00;;;;;;5069834;28;20032;-80
2022/03/12 08:53:53;;;;;;;4.55;3.35;;;7.50;44.50;;;;;;5048376;28;20096;-79
2022/03/12 08:56:19;;;;;;;4.28;3.05;;;7.70;43.70;;;;;;5066486;28;20124;-80
2022/03/12 08:58:44;;;;;;;6.90;3.63;;;7.90;43.40;;;;;;5051656;28;20036;-80
2022/03/12 09:01:10;;;;;;;4.88;3.75;;;8.10;43.30;;;;;;5067683;28;20040;-80
2022/03/12 09:03:36;;;;;;;5.60;3.67;;;8.30;43.00;;;;;;5068269;28;20036;-79
2022/03/12 09:06:02;;;;;;;6.22;3.47;;;8.50;42.80;;;;;;5071755;28;20488;-81
2022/03/12 09:08:27;;;;;;;5.90;3.47;;;8.70;42.60;;;;;;5072862;28;20035;-80
2022/03/12 09:10:55;;;;;;;8.18;3.45;;;8.80;42.30;;;;;;5039798;28;20047;-79
2022/03/12 09:13:20;;;;;;;6.88;3.75;;;9.00;42.40;;;;;;5042167;28;20598;-79
2022/03/12 09:15:46;;;;;;;6.80;4.05;;;9.20;42.10;;;;;;5072997;28;20044;-81
2022/03/12 09:18:12;;;;;;;6.35;3.25;;;9.40;41.90;;;;;;5055136;28;20115;-80
2022/03/12 09:20:44;;;;;;;5.80;3.40;;;9.60;41.80;;;;;;5054533;28;20563;-80
2022/03/12 09:23:10;;;;;;;5.88;3.70;;;9.70;41.50;;;;;;5037122;28;20036;-79
2022/03/12 09:25:35;;;;;;;5.18;3.40;;;9.90;41.20;;;;;;5053227;28;20087;-80
2022/03/12 09:28:01;;;;;;;4.95;3.05;;;10.10;41.10;;;;;;5012645;28;20032;-80
2022/03/12 09:30:27;;;;;;;5.95;3.13;;;10.30;41.00;;;;;;5066922;28;20036;-79
2022/03/12 09:32:53;;;;;;;5.93;3.70;;;10.40;40.80;;;;;;5032597;28;20043;-79
2022/03/12 09:35:19;;;;;;;9.55;4.40;;;10.70;40.60;;;;;;5066671;28;20040;-79
2022/03/12 09:37:45;;;;;;;6.25;3.38;;;10.80;40.50;;;;;;5061307;28;20060;-80
2022/03/12 09:40:11;;;;;;;6.75;4.38;;;11.00;40.20;;;;;;5067357;28;20393;-80
2022/03/12 09:42:37;;;;;;;5.90;3.72;;;11.20;40.00;;;;;;5060568;28;20060;-80
2022/03/12 09:45:03;;;;;;;16.27;8.43;;;11.30;39.60;;;;;;5037177;28;20028;-80
2022/03/12 09:47:28;;;;;;;24.85;13.30;;;11.50;39.60;;;;;;5046341;28;20452;-80
2022/03/12 09:49:54;;;;;;;19.23;10.00;;;11.60;39.20;;;;;;5054946;28;20543;-80
2022/03/12 09:52:20;;;;;;;14.57;6.25;;;11.70;39.10;;;;;;5061680;28;20043;-80
2022/03/12 09:54:49;;;;;;;9.07;5.30;;;11.90;39.10;;;;;;5050008;28;20960;-81
2022/03/12 09:57:14;;;;;;;9.63;4.75;;;12.00;38.80;;;;;;5048332;28;20565;-81
2022/03/12 09:59:40;;;;;;;5.78;3.97;;;12.20;38.80;;;;;;5042232;28;20122;-80
2022/03/12 10:02:06;;;;;;;8.15;4.40;;;12.40;38.70;;;;;;5046583;28;20035;-76
2022/03/12 10:04:31;;;;;;;6.68;3.90;;;12.60;38.60;;;;;;5058370;28;20024;-80
2022/03/12 10:06:58;;;;;;;8.82;3.88;;;12.90;38.40;;;;;;5066373;28;20025;-78
2022/03/12 10:09:24;;;;;;;7.63;3.83;;;13.00;38.20;;;;;;5054556;28;20493;-79
2022/03/12 10:11:53;;;;;;;19.98;4.38;;;13.20;37.90;;;;;;5039616;28;20055;-79
2022/03/12 10:14:20;;;;;;;15.52;5.38;;;13.40;37.70;;;;;;5029273;28;20035;-77
2022/03/12 10:16:45;;;;;;;31.58;7.20;;;13.60;37.60;;;;;;5043191;28;20032;-79
2022/03/12 10:19:11;;;;;;;16.25;5.47;;;13.70;37.20;;;;;;5052440;28;20040;-78
2022/03/12 10:21:42;;;;;;;11.38;4.60;;;13.80;37.00;;;;;;5052546;28;20772;-78
2022/03/12 10:24:09;;;;;;;7.03;4.30;;;13.90;36.80;;;;;;5036799;28;20025;-78
2022/03/12 10:26:34;;;;;;;7.65;4.20;;;14.00;36.60;;;;;;5038485;28;20060;-79
2022/03/12 10:29:00;;;;;;;7.80;4.22;;;14.10;36.50;;;;;;5041411;28;20065;-77
2022/03/12 10:31:26;;;;;;;6.72;4.30;;;14.20;36.20;;;;;;5056811;28;20032;-77
2022/03/12 10:33:52;;;;;;;6.25;3.47;;;14.30;35.80;;;;;;5011866;28;20039;-78
2022/03/12 10:36:18;;;;;;;7.43;4.43;;;14.40;35.70;;;;;;5029447;28;20043;-78
2022/03/12 10:38:48;;;;;;;9.85;4.18;;;14.50;35.60;;;;;;5005369;28;20087;-79
2022/03/12 10:41:14;;;;;;;5.00;3.45;;;14.70;35.40;;;;;;5056638;28;20476;-79
2022/03/12 10:44:06;;;;;;;7.75;4.20;;;14.80;35.40;;;;;;5054189;28;20070;-78
2022/03/12 10:46:32;;;;;;;;;;;15.00;35.10;;;;;;5040955;28;20044;-78
2022/03/12 10:48:58;;;;;;;6.47;4.40;;;15.10;35.50;;;;;;5025286;28;19916;-78
2022/03/12 10:51:26;;;;;;;9.52;4.10;;;15.30;35.50;;;;;;5043466;28;20062;-78
2022/03/12 10:54:05;;;;;;;4.95;3.83;;;15.40;35.20;;;;;;5022016;28;20489;-79
2022/03/12 10:56:38;;;;;;;7.72;4.85;;;15.50;34.60;;;;;;5058187;28;20037;-79
2022/03/12 10:59:10;;;;;;;8.25;4.65;;;15.70;34.60;;;;;;5039766;28;20048;-81
2022/03/12 11:01:36;;;;;;;5.38;4.30;;;15.80;34.20;;;;;;5012605;28;20043;-79
2022/03/12 11:04:01;;;;;;;5.82;4.22;;;15.80;34.00;;;;;;5059707;28;20037;-80
2022/03/12 11:06:27;;;;;;;7.57;4.55;;;15.80;34.00;;;;;;5030875;28;20115;-79
2022/03/12 11:08:53;;;;;;;6.18;4.10;;;16.00;34.00;;;;;;5054118;28;20041;-79
2022/03/12 11:11:19;;;;;;;5.65;4.30;;;16.20;33.90;;;;;;5041883;28;20039;-78
2022/03/12 11:13:47;;;;;;;8.18;4.53;;;16.40;33.70;;;;;;5031736;28;20067;-80
2022/03/12 11:16:20;;;;;;;8.38;4.40;;;16.60;33.50;;;;;;5039486;28;20066;-79
2022/03/12 11:18:51;;;;;;;6.57;4.60;;;16.70;33.20;;;;;;5033395;28;20032;-80
2022/03/12 11:21:33;;;;;;;8.63;4.85;;;16.80;32.80;;;;;;5040920;28;20039;-78
2022/03/12 11:23:59;;;;;;;8.32;4.25;;;16.90;32.70;;;;;;5056314;28;20048;-79
2022/03/12 11:26:24;;;;;;;6.95;5.00;;;17.10;33.00;;;;;;5061050;28;20036;-80
2022/03/12 11:28:56;;;;;;;7.53;4.75;;;17.30;32.80;;;;;;5051478;28;20045;-78
2022/03/12 11:31:49;;;;;;;9.13;4.55;;;17.40;32.40;;;;;;5054853;28;20032;-80
2022/03/12 11:34:23;;;;;;;9.38;4.50;;;17.50;31.70;;;;;;5042136;28;20869;-78
2022/03/12 11:36:55;;;;;;;5.97;4.22;;;17.60;32.10;;;;;;5042018;28;20107;-79
2022/03/12 11:39:39;;;;;;;5.65;4.47;;;17.80;31.80;;;;;;5078310;28;20525;-80
2022/03/12 11:42:08;;;;;;;6.63;4.28;;;17.90;31.50;;;;;;5060775;28;20050;-79
2022/03/12 11:44:35;;;;;;;6.00;4.60;;;18.00;31.60;;;;;;5061722;28;20029;-81
2022/03/12 11:47:01;;;;;;;7.20;4.68;;;18.00;31.30;;;;;;5053327;28;20078;-79
2022/03/12 11:49:27;;;;;;;7.70;4.25;;;18.10;31.40;;;;;;5054712;28;20111;-80
2022/03/12 11:51:52;;;;;;;6.65;5.05;;;18.30;31.40;;;;;;5055161;28;20051;-79
2022/03/12 11:54:19;;;;;;;7.05;4.82;;;18.30;31.10;;;;;;5051436;28;21195;-80
2022/03/12 11:56:44;;;;;;;8.63;4.95;;;18.40;31.00;;;;;;5070990;28;20037;-80
2022/03/12 11:59:10;;;;;;;6.75;4.85;;;18.50;30.90;;;;;;5047934;28;20732;-79
2022/03/12 12:01:37;;;;;;;6.47;4.68;;;18.60;30.90;;;;;;5050304;28;20132;-80
2022/03/12 12:04:02;;;;;;;7.13;5.00;;;18.70;30.60;;;;;;5062162;28;20016;-80
2022/03/12 12:06:28;;;;;;;7.85;4.80;;;18.80;30.50;;;;;;5045429;28;20115;-79
2022/03/12 12:08:53;;;;;;;7.38;5.40;;;18.90;30.40;;;;;;5053001;28;20406;-80
2022/03/12 12:11:19;;;;;;;7.30;4.45;;;19.00;30.20;;;;;;5081774;28;20028;-79
2022/03/12 12:13:45;;;;;;;6.88;4.60;;;19.00;30.10;;;;;;5037014;28;20033;-81
2022/03/12 12:16:11;;;;;;;5.95;4.38;;;19.20;30.10;;;;;;5044168;28;20057;-80
2022/03/12 12:18:37;;;;;;;7.70;4.53;;;19.30;30.00;;;;;;5065429;28;20191;-79
2022/03/12 12:21:03;;;;;;;6.05;4.43;;;19.30;29.90;;;;;;5061439;28;20036;-79
2022/03/12 12:23:29;;;;;;;6.25;4.93;;;19.40;30.00;;;;;;5051007;28;20044;-79
2022/03/12 12:26:09;;;;;;;8.02;4.72;;;19.40;30.00;;;;;;5062673;28;20099;-79
2022/03/12 12:28:48;;;;;;;5.57;4.20;;;19.50;29.70;;;;;;5040247;28;20140;-79
2022/03/12 12:31:23;;;;;;;7.85;4.57;;;19.60;29.80;;;;;;5033615;28;20785;-79
2022/03/12 12:33:49;;;;;;;7.35;4.38;;;19.70;29.80;;;;;;5057849;28;20036;-79
2022/03/12 12:36:15;;;;;;;7.78;5.07;;;19.70;29.90;;;;;;5073048;28;20047;-80
2022/03/12 12:39:11;;;;;;;13.55;4.80;;;19.80;29.80;;;;;;5063110;28;20028;-79
2022/03/12 12:41:55;;;;;;;7.43;4.43;;;19.80;29.10;;;;;;5072734;28;20032;-79
2022/03/12 12:44:42;;;;;;;7.07;4.45;;;19.90;28.60;;;;;;5041478;28;20043;-79
2022/03/12 12:47:10;;;;;;;7.38;4.47;;;19.80;29.00;;;;;;5077800;28;20043;-79
2022/03/12 12:49:43;;;;;;;8.07;4.82;;;19.80;29.30;;;;;;5038069;28;20070;-79
2022/03/12 12:52:10;;;;;;;6.97;4.80;;;19.80;29.10;;;;;;5052755;28;20310;-80